createdAt,value
2022-11-21T00:01:30.041Z,6.90
2022-11-21T00:06:53.353Z,6.20
2022-11-21T00:12:18.485Z,5.67
2022-11-21T00:17:41.569Z,7.00
2022-11-21T00:23:04.806Z,6.97
2022-11-21T00:28:29.303Z,7.90
2022-11-21T00:33:52.568Z,9.53
2022-11-21T00:39:15.672Z,8.13
2022-11-21T00:44:40.195Z,7.77
2022-11-21T00:50:03.382Z,7.13
2022-11-21T00:55:26.820Z,8.30
2022-11-21T01:00:51.459Z,7.73
2022-11-21T01:06:15.666Z,8.60
2022-11-21T01:11:38.838Z,9.57
2022-11-21T01:17:03.384Z,8.23
2022-11-21T01:22:26.558Z,9.53
2022-11-21T01:27:49.716Z,9.30
2022-11-21T01:33:14.325Z,9.73
2022-11-21T01:38:37.500Z,9.60
2022-11-21T01:44:00.780Z,11.13
2022-11-21T01:49:27.617Z,9.13
2022-11-21T01:54:53.624Z,10.97
2022-11-21T02:00:21.637Z,9.57
2022-11-21T02:05:46.353Z,9.50
2022-11-21T02:11:15.611Z,9.80
2022-11-21T02:16:38.903Z,10.40
2022-11-21T02:22:07.393Z,9.80
2022-11-21T02:27:32.314Z,11.73
2022-11-21T02:32:55.521Z,11.73
2022-11-21T02:38:21.196Z,11.67
2022-11-21T02:43:48.720Z,11.43
2022-11-21T02:49:12.023Z,12.93
2022-11-21T02:54:35.314Z,14.43
2022-11-21T02:59:59.922Z,14.63
2022-11-21T03:05:23.775Z,16.67
2022-11-21T03:10:46.881Z,18.77
2022-11-21T03:16:11.410Z,18.33
2022-11-21T03:21:34.618Z,16.30
2022-11-21T03:26:57.848Z,20.13
2022-11-21T03:32:22.440Z,20.00
2022-11-21T03:37:45.730Z,17.67
2022-11-21T03:43:09.398Z,17.20
2022-11-21T03:48:33.931Z,18.83
2022-11-21T03:53:57.189Z,19.40
2022-11-21T03:59:20.357Z,20.40
2022-11-21T04:04:44.918Z,19.13
2022-11-21T04:10:08.794Z,17.13
2022-11-21T04:15:31.999Z,19.33
2022-11-21T04:20:59.007Z,19.57
2022-11-21T04:26:22.103Z,19.60
2022-11-21T04:31:45.333Z,20.40
2022-11-21T04:37:11.766Z,20.33
2022-11-21T04:42:35.117Z,19.40
2022-11-21T04:47:58.537Z,21.50
2022-11-21T04:53:23.105Z,22.70
2022-11-21T04:58:46.238Z,19.57
2022-11-21T05:04:09.449Z,19.63
2022-11-21T05:09:34.041Z,21.77
2022-11-21T05:14:57.306Z,23.00
2022-11-21T05:20:20.602Z,25.17
2022-11-21T05:25:45.115Z,21.63
2022-11-21T05:31:08.401Z,22.87
2022-11-21T05:36:31.590Z,20.53
2022-11-21T05:41:59.868Z,21.73
2022-11-21T05:47:24.568Z,18.80
2022-11-21T05:52:47.691Z,20.33
2022-11-21T05:58:12.287Z,21.43
2022-11-21T06:03:37.029Z,19.83
2022-11-21T06:09:00.369Z,20.03
2022-11-21T06:14:25.143Z,17.47
2022-11-21T06:19:48.347Z,19.43
2022-11-21T06:25:11.519Z,18.53
2022-11-21T06:30:36.341Z,19.43
2022-11-21T06:35:59.616Z,19.47
2022-11-21T06:41:25.638Z,18.80
2022-11-21T06:46:51.659Z,17.77
2022-11-21T06:52:15.084Z,20.10
2022-11-21T06:57:38.269Z,20.00
2022-11-21T07:03:03.708Z,18.80
2022-11-21T07:08:27.407Z,19.60
2022-11-21T07:13:50.612Z,17.37
2022-11-21T07:19:15.289Z,18.10
2022-11-21T07:24:38.434Z,17.83
2022-11-21T07:30:01.672Z,16.90
2022-11-21T07:35:26.724Z,17.50
2022-11-21T07:40:51.630Z,18.87
2022-11-21T07:46:14.859Z,18.83
2022-11-21T07:51:39.422Z,18.33
2022-11-21T07:57:02.715Z,18.50
2022-11-21T08:02:27.527Z,18.50
2022-11-21T08:07:52.117Z,16.93
2022-11-21T08:13:15.502Z,16.53
2022-11-21T08:18:38.659Z,16.43
2022-11-21T08:24:03.431Z,14.10
2022-11-21T08:29:27.170Z,17.03
2022-11-21T08:34:50.505Z,17.30
2022-11-21T08:40:15.361Z,13.83
2022-11-21T08:45:39.650Z,16.83
2022-11-21T08:51:02.951Z,17.40
2022-11-21T08:56:27.601Z,16.53
2022-11-21T09:01:50.821Z,14.97
2022-11-21T09:07:14.144Z,15.53
2022-11-21T09:12:38.642Z,16.90
2022-11-21T09:18:04.882Z,16.27
2022-11-21T09:23:28.078Z,17.10
2022-11-21T09:28:52.560Z,14.77
2022-11-21T09:34:15.725Z,15.37
2022-11-21T09:39:38.874Z,13.80
2022-11-21T09:45:13.009Z,16.30
2022-11-21T09:50:37.633Z,14.47
2022-11-21T09:56:02.677Z,13.33
2022-11-21T10:01:28.653Z,13.77
2022-11-21T10:06:59.587Z,14.87
2022-11-21T10:12:38.996Z,15.13
2022-11-21T10:18:18.970Z,13.60
2022-11-21T10:23:56.079Z,13.70
2022-11-21T10:29:21.741Z,13.70
2022-11-21T10:34:47.326Z,13.70
2022-11-21T10:40:17.644Z,14.40
2022-11-21T10:45:40.785Z,15.03
2022-11-21T10:51:18.426Z,17.03
2022-11-21T10:56:41.498Z,13.20
2022-11-21T11:02:23.663Z,13.77
2022-11-21T11:08:01.309Z,13.83
2022-11-21T11:13:46.268Z,15.00
2022-11-21T11:19:18.764Z,15.53
2022-11-21T11:24:57.615Z,16.90
2022-11-21T11:30:23.556Z,14.27
2022-11-21T11:35:47.068Z,16.20
2022-11-21T11:41:18.166Z,14.50
2022-11-21T11:47:04.309Z,13.60
2022-11-21T11:52:30.978Z,16.60
2022-11-21T11:57:57.745Z,15.20
2022-11-21T12:03:22.989Z,15.03
2022-11-21T12:08:53.390Z,17.23
2022-11-21T12:14:47.151Z,14.13
2022-11-21T12:20:16.701Z,15.07
2022-11-21T12:25:42.956Z,13.40
2022-11-21T12:31:11.020Z,12.67
2022-11-21T12:36:40.010Z,13.70
2022-11-21T12:42:26.665Z,15.03
2022-11-21T12:48:47.121Z,14.83
2022-11-21T12:54:31.388Z,16.13
2022-11-21T13:00:01.226Z,15.83
2022-11-21T13:05:28.876Z,17.63
2022-11-21T13:11:16.606Z,18.00
2022-11-21T13:16:46.530Z,16.53
2022-11-21T13:22:51.031Z,15.87
2022-11-21T13:28:37.636Z,18.43
2022-11-21T13:34:01.129Z,17.87
2022-11-21T13:39:29.484Z,15.37
2022-11-21T13:44:54.441Z,17.53
2022-11-21T13:50:24.869Z,17.93
2022-11-21T13:55:57.993Z,18.47
2022-11-21T14:01:39.922Z,16.43
2022-11-21T14:07:22.513Z,17.83
2022-11-21T14:12:48.512Z,14.30
2022-11-21T14:18:21.870Z,14.53
2022-11-21T14:23:45.266Z,15.83
2022-11-21T14:29:18.595Z,16.13
2022-11-21T14:34:43.154Z,18.17
2022-11-21T14:40:07.155Z,16.97
2022-11-21T14:45:30.434Z,17.63
2022-11-21T14:50:55.042Z,15.27
2022-11-21T14:56:21.778Z,17.07
2022-11-21T15:01:56.581Z,16.07
2022-11-21T15:07:28.383Z,16.53
2022-11-21T15:12:57.564Z,16.47
2022-11-21T15:18:27.749Z,17.50
2022-11-21T15:23:56.522Z,16.40
2022-11-21T15:29:21.885Z,15.13
2022-11-21T15:34:45.305Z,13.27
2022-11-21T15:40:19.848Z,14.20
2022-11-21T15:45:43.091Z,15.83
2022-11-21T15:51:06.350Z,15.83
2022-11-21T15:56:30.916Z,13.83
2022-11-21T16:01:54.112Z,16.17
2022-11-21T16:07:17.328Z,14.57
2022-11-21T16:12:41.856Z,16.27
2022-11-21T16:18:05.080Z,13.83
2022-11-21T16:23:28.206Z,16.73
2022-11-21T16:28:54.516Z,13.07
2022-11-21T16:34:19.743Z,14.10
2022-11-21T16:39:42.910Z,12.60
2022-11-21T16:45:08.314Z,14.23
2022-11-21T16:50:31.511Z,12.53
2022-11-21T16:56:01.223Z,12.53
2022-11-21T17:01:28.080Z,13.83
2022-11-21T17:06:53.214Z,11.83
2022-11-21T17:12:16.366Z,10.47
2022-11-21T17:17:41.517Z,11.00
2022-11-21T17:23:04.761Z,11.23
2022-11-21T17:28:27.945Z,9.73
2022-11-21T17:33:54.677Z,11.13
2022-11-21T17:39:18.910Z,10.17
2022-11-21T17:44:42.076Z,9.60
2022-11-21T17:50:07.400Z,10.33
2022-11-21T17:55:30.489Z,9.27
2022-11-21T18:00:56.938Z,9.27
2022-11-21T18:06:21.562Z,9.37
2022-11-21T18:12:06.538Z,9.80
2022-11-21T18:17:29.718Z,7.70
2022-11-21T18:22:54.198Z,7.90
2022-11-21T18:28:17.352Z,8.20
2022-11-21T18:33:41.017Z,7.73
2022-11-21T18:39:12.343Z,8.40
2022-11-21T18:44:37.641Z,7.40
2022-11-21T18:50:00.822Z,9.57
2022-11-21T18:55:27.292Z,7.47
2022-11-21T19:00:50.522Z,6.73
2022-11-21T19:06:17.742Z,7.37
2022-11-21T19:11:42.349Z,7.03
2022-11-21T19:17:05.561Z,7.37
2022-11-21T19:22:29.506Z,7.57
2022-11-21T19:27:54.208Z,7.23
2022-11-21T19:33:17.477Z,5.70
2022-11-21T19:38:40.661Z,7.70
2022-11-21T19:44:05.608Z,5.80
2022-11-21T19:49:28.978Z,5.80
2022-11-21T19:54:52.245Z,8.27
2022-11-21T20:00:18.412Z,6.43
2022-11-21T20:05:41.617Z,6.00
2022-11-21T20:11:06.346Z,5.87
2022-11-21T20:16:32.576Z,8.53
2022-11-21T20:21:56.143Z,6.40
2022-11-21T20:27:19.356Z,5.83
2022-11-21T20:32:43.987Z,5.70
2022-11-21T20:38:07.230Z,6.23
2022-11-21T20:43:59.515Z,7.10
2022-11-21T20:49:15.493Z,5.83
2022-11-21T20:54:38.604Z,6.07
2022-11-21T21:00:01.808Z,6.77
2022-11-21T21:05:26.402Z,6.43
2022-11-21T21:11:05.026Z,5.60
2022-11-21T21:16:30.387Z,4.67
2022-11-21T21:21:54.973Z,7.30
2022-11-21T21:27:18.152Z,6.23
2022-11-21T21:32:41.330Z,6.27
2022-11-21T21:38:08.898Z,5.70
2022-11-21T21:43:32.481Z,5.30
2022-11-21T21:48:57.026Z,7.03
2022-11-21T21:54:23.213Z,5.77
2022-11-21T21:59:46.401Z,5.50
2022-11-21T22:05:09.840Z,5.80
2022-11-21T22:10:34.349Z,5.37
2022-11-21T22:15:57.615Z,5.87
2022-11-21T22:21:21.842Z,4.73
2022-11-21T22:26:46.961Z,5.33
2022-11-21T22:32:10.146Z,6.60
2022-11-21T22:37:33.375Z,5.13
2022-11-21T22:42:57.886Z,4.47
2022-11-21T22:48:21.034Z,5.70
2022-11-21T22:53:46.448Z,5.27
2022-11-21T22:59:13.475Z,5.37
2022-11-21T23:04:36.650Z,4.47
2022-11-21T23:10:00.333Z,6.27
2022-11-21T23:15:24.835Z,5.70
2022-11-21T23:20:48.210Z,5.20
2022-11-21T23:26:11.633Z,4.77
2022-11-21T23:31:36.266Z,5.73
2022-11-21T23:36:59.501Z,5.27
2022-11-21T23:42:22.634Z,4.93
2022-11-21T23:47:47.220Z,4.53
2022-11-21T23:53:10.480Z,4.97
2022-11-21T23:58:33.708Z,4.73
